Latest Weather Observations for Mount Crawford

IDS60801

Issued at 12:32 am CDT Thursday 29 January 2015 (issued every 30 minutes, with the page automatically refreshed every 10 minutes)

About weather observations | Map of weather stations | Latest weather observations for SA | Other Formats
Station Details ID: 023878 Name: MT CRAWFORD AWS Lat: -34.73 Lon: 138.93 Height: 525.0 m
Data from the previous 72 hours. | See also: Recent months at Mount Crawford
Date/Time
CDT
Temp
°C
App
Temp
°C
Dew
Point
Rel
Hum
%
Delta-T
°C
Wind Press
QNH
hPa
Press
MSL
hPa
Rain
since 9 am
mm
Dir
 
Spd
km/h
Gust
km/h
Spd
kts
Gust
kts
29/12:30am 14.3 9.3 12.3 88 1.1 SSE 30 39 16 21 1015.9 1013.6 0.0
29/12:00am 14.2 9.3 12.6 90 0.9 SE 30 39 16 21 1016.2 1013.9 0.0
 
Date/Time
CDT
Temp
°C
App
Temp
°C
Dew
Point
Rel
Hum
%
Delta-T
°C
Wind Press
QNH
hPa
Press
MSL
hPa
Rain
since 9 am
mm
Dir
 
Spd
km/h
Gust
km/h
Spd
kts
Gust
kts
28/11:30pm 14.1 9.2 12.7 91 0.8 SSE 30 39 16 21 1016.2 1013.9 0.0
28/11:00pm 14.0 9.8 12.4 90 0.9 SSE 26 35 14 19 1016.3 1014.0 0.0
28/10:30pm 14.2 9.5 12.1 87 1.2 SSE 28 37 15 20 1016.4 1014.1 0.0
28/10:00pm 14.3 9.7 12.2 87 1.2 SSE 28 41 15 22 1016.4 1014.1 0.0
28/09:30pm 14.2 9.3 11.4 83 1.5 SSE 28 39 15 21 1016.3 1014.0 0.0
28/09:00pm 14.7 10.3 10.5 76 2.3 SSE 24 32 13 17 1016.3 1014.0 0.0
28/08:30pm 15.3 10.8 10.1 71 2.8 S 24 39 13 21 1016.3 1014.0 0.0
28/08:00pm 16.4 12.7 10.0 66 3.5 SSE 20 33 11 18 1016.1 1013.8 0.0
28/07:30pm 17.5 13.3 9.7 60 4.2 S 22 33 12 18 1016.2 1013.9 0.0
28/07:00pm 18.6 14.3 9.4 55 5.0 SSE 22 33 12 18 1016.0 1013.7 0.0
28/06:30pm 19.1 14.3 9.0 52 5.4 SE 24 35 13 19 1015.7 1013.4 0.0
28/06:00pm 19.6 14.3 8.3 48 6.0 SE 26 39 14 21 1015.7 1013.4 0.0
28/05:30pm 20.1 14.1 7.1 43 6.8 SE 28 41 15 22 1015.6 1013.3 0.0
28/05:00pm 20.5 15.1 6.4 40 7.3 SE 24 39 13 21 1015.8 1013.5 0.0
28/04:30pm 20.3 14.2 6.6 41 7.1 SE 28 43 15 23 1015.6 1013.3 0.0
28/04:10pm 21.0 15.0 6.9 40 7.4 SE 28 46 15 25 1015.7 1013.4 0.0
28/04:00pm 20.6 13.8 6.9 41 7.1 SE 32 44 17 24 1015.7 1013.4 0.0
28/03:40pm 20.5 13.7 6.8 41 7.1 SE 32 50 17 27 1015.6 1013.3 0.0
28/03:30pm 20.4 14.4 7.1 42 7.0 SE 28 43 15 23 1015.8 1013.5 0.0
28/03:00pm 21.3 14.4 4.8 34 8.3 SE 30 41 16 22 1016.0 1013.7 0.0
28/02:47pm 20.4 13.9 4.8 36 7.8 SE 28 46 15 25 1016.2 1013.9 0.0
28/02:30pm 20.6 15.5 6.2 39 7.4 SSE 22 39 12 21 1016.5 1014.3 0.0
28/02:00pm 20.1 13.6 4.6 36 7.7 SE 28 43 15 23 1016.6 1014.4 0.0
28/01:30pm 18.8 13.2 5.6 42 6.6 SE 24 43 13 23 1017.1 1014.8 0.0
28/01:00pm 18.9 13.0 5.7 42 6.7 SE 26 39 14 21 1017.1 1014.8 0.0
28/12:30pm 17.6 11.2 5.2 44 6.1 SSE 28 46 15 25 1017.1 1014.8 0.0
28/12:12pm 16.8 10.3 4.5 44 6.0 SE 28 46 15 25 1017.2 1014.9 0.0
28/12:00pm 17.5 11.7 6.1 47 5.7 SE 26 39 14 21 1017.3 1015.0 0.0
28/11:30am 16.0 10.5 5.9 51 5.0 SE 24 37 13 20 1017.6 1015.3 0.0
28/11:10am 14.8 8.5 5.6 54 4.5 SE 28 46 15 25 1017.7 1015.4 0.0
28/11:00am 15.7 10.3 6.2 53 4.7 SE 24 35 13 19 1017.8 1015.5 0.0
28/10:30am 14.2 7.6 6.1 58 4.0 SE 30 44 16 24 1017.8 1015.5 0.0
28/10:00am 12.7 5.5 6.1 64 3.2 SE 33 46 18 25 1017.3 1015.0 0.0
28/09:40am 11.8 3.1 6.1 68 2.8 ESE 41 65 22 35 1016.8 1014.6 0.0
28/09:30am 12.2 4.7 6.5 68 2.8 ESE 35 52 19 28 1017.1 1014.8 0.0
28/09:00am 10.1 1.9 6.4 78 1.8 SE 39 50 21 27 1017.1 1014.8 0.0
28/08:30am 10.1 2.8 7.0 81 1.5 ESE 35 56 19 30 1016.8 1014.6 0.0
28/08:13am 10.1 3.2 7.2 82 1.4 ESE 33 52 18 28 1016.8 1014.6 0.0
28/08:00am 9.4 1.7 7.3 87 1.0 ESE 37 48 20 26 1016.6 1014.4 0.0
28/07:54am 9.5 2.2 7.3 86 1.1 ESE 35 54 19 29 1016.5 1014.3 0.0
28/07:30am 9.0 2.3 7.3 89 0.8 ESE 32 44 17 24 1016.5 1014.3 0.0
28/07:20am 8.8 2.8 7.1 89 0.8 ESE 28 50 15 27 1016.3 1014.0 0.0
28/07:00am 8.4 1.1 7.0 91 0.7 SE 35 50 19 27 1015.8 1013.5 0.0
28/06:30am 8.1 -0.1 6.4 89 0.8 SE 39 59 21 32 1015.3 1013.0 0.0
28/06:05am 8.0 0.1 6.3 89 0.8 SE 37 57 20 31 1015.1 1012.8 0.0
28/06:00am 8.0 0.1 6.3 89 0.8 SE 37 52 20 28 1015.1 1012.8 0.0
28/05:43am 7.9 0.4 6.2 89 0.8 ESE 35 54 19 29 1015.2 1012.9 0.0
28/05:30am 7.9 1.3 6.0 88 0.9 ESE 30 43 16 23 1015.4 1013.1 0.0
28/05:00am 8.2 2.0 6.2 87 0.9 ESE 28 39 15 21 1015.8 1013.5 0.0
28/04:30am 8.6 3.1 6.1 84 1.2 SE 24 33 13 18 1016.0 1013.7 0.0
28/04:00am 8.9 3.4 5.8 81 1.5 ESE 24 35 13 19 1015.8 1013.5 0.0
28/03:30am 9.4 3.6 6.1 80 1.6 ESE 26 37 14 20 1016.2 1013.9 0.0
28/03:00am 9.6 4.1 6.1 79 1.7 SE 24 35 13 19 1016.5 1014.3 0.0
28/02:30am 9.9 3.4 6.4 79 1.7 SE 30 43 16 23 1016.3 1014.0 0.0
28/02:00am 10.3 4.0 7.2 81 1.5 SE 30 43 16 23 1016.3 1014.0 0.0
28/01:34am 10.7 5.1 8.8 88 1.0 SE 28 46 15 25 1016.7 1014.5 0.0
28/01:30am 10.6 5.4 9.0 90 0.8 SE 26 44 14 24 1016.8 1014.6 0.0
28/01:25am 10.7 5.3 9.5 92 0.6 SSE 28 46 15 25 1016.7 1014.5 0.0
28/01:00am 10.8 5.6 10.2 96 0.3 SSE 28 41 15 22 1016.9 1014.7 0.0
28/12:30am 11.1 7.1 10.5 96 0.3 SSE 22 37 12 20 1017.1 1014.8 0.0
28/12:00am 11.0 5.8 10.2 95 0.4 SSE 28 41 15 22 1017.1 1014.8 0.0
 
Date/Time
CDT
Temp
°C
App
Temp
°C
Dew
Point
Rel
Hum
%
Delta-T
°C
Wind Press
QNH
hPa
Press
MSL
hPa
Rain
since 9 am
mm
Dir
 
Spd
km/h
Gust
km/h
Spd
kts
Gust
kts
27/11:30pm 10.9 5.9 9.7 92 0.6 SSE 26 41 14 22 1017.3 1015.0 0.0
27/11:03pm 10.9 5.1 9.3 90 0.8 SE 30 48 16 26 1017.1 1014.8 0.0
27/11:00pm 11.0 4.8 9.4 90 0.8 SSE 32 48 17 26 1017.1 1014.8 0.0
27/10:57pm 11.0 5.2 9.4 90 0.8 SSE 30 48 16 26 1017.1 1014.8 0.0
27/10:30pm 11.0 5.1 9.1 88 1.0 SSE 30 41 16 22 1017.3 1015.0 0.0
27/10:00pm 11.2 5.3 9.1 87 1.1 SSE 30 48 16 26 1017.2 1014.9 0.0
27/09:56pm 11.2 5.3 8.9 86 1.2 SSE 30 48 16 26 1017.2 1014.9 0.0
27/09:30pm 11.3 6.1 8.7 84 1.3 SSE 26 43 14 23 1016.8 1014.6 0.0
27/09:03pm 11.5 5.5 8.5 82 1.5 SSE 30 48 16 26 1016.7 1014.5 0.0
27/09:00pm 11.6 5.6 8.5 81 1.6 SSE 30 44 16 24 1016.6 1014.4 0.0
27/08:30pm 12.1 6.4 8.2 77 2.0 SSE 28 44 15 24 1016.5 1014.3 0.0
27/08:00pm 12.9 7.2 8.2 73 2.4 SSE 28 43 15 23 1016.4 1014.1 0.0
27/07:30pm 13.8 7.4 6.9 63 3.4 SSE 30 44 16 24 1016.1 1013.8 0.0
27/07:00pm 14.7 9.3 6.3 57 4.2 S 24 35 13 19 1016.2 1013.9 0.0
27/06:30pm 15.8 10.4 6.3 53 4.7 SSE 24 35 13 19 1015.9 1013.6 0.0
27/06:00pm 16.0 10.7 6.7 54 4.7 SSE 24 37 13 20 1016.0 1013.7 0.0
27/05:30pm 16.6 11.1 6.1 50 5.3 SSE 24 41 13 22 1015.7 1013.4 0.0
27/05:00pm 17.1 11.4 6.6 50 5.3 SSE 26 39 14 21 1015.7 1013.4 0.0
27/04:30pm 17.1 11.2 6.0 48 5.6 SSE 26 39 14 21 1015.9 1013.6 0.0
27/04:00pm 17.7 11.8 5.9 46 5.9 S 26 39 14 21 1015.8 1013.5 0.0
27/03:30pm 18.2 12.9 7.0 48 5.8 SSE 24 43 13 23 1016.0 1013.7 0.0
27/03:00pm 17.9 11.9 5.2 43 6.3 SSE 26 37 14 20 1016.3 1014.0 0.0
27/02:30pm 18.3 13.0 5.2 42 6.5 SSE 22 41 12 22 1016.4 1014.1 0.0
27/02:00pm 17.2 11.2 5.2 45 5.9 SSE 26 41 14 22 1016.4 1014.1 0.0
27/01:30pm 16.8 10.4 5.1 46 5.7 SSE 28 41 15 22 1016.7 1014.5 0.0
27/01:00pm 17.0 11.3 5.0 45 5.9 SSE 24 37 13 20 1017.1 1014.8 0.0
27/12:30pm 17.0 12.3 6.2 49 5.4 SE 20 30 11 16 1017.3 1015.0 0.0
27/12:00pm 15.9 10.7 5.5 50 5.1 SSE 22 33 12 18 1017.4 1015.1 0.0
27/11:30am 16.3 11.2 6.2 51 5.0 SE 22 35 12 19 1017.6 1015.3 0.0
27/11:00am 15.7 10.5 5.6 51 5.0 SE 22 33 12 18 1017.8 1015.5 0.0
27/10:30am 14.8 9.2 5.6 54 4.5 ESE 24 39 13 21 1017.9 1015.6 0.0
27/10:00am 14.0 7.7 5.9 58 4.0 ESE 28 44 15 24 1017.9 1015.6 0.0
27/09:30am 13.8 7.5 5.9 59 3.9 ESE 28 39 15 21 1018.1 1015.8 0.0
27/09:00am 11.7 5.2 4.9 63 3.2 ESE 28 41 15 22 1017.9 1015.6 0.0
27/08:30am 11.2 5.1 6.5 73 2.3 ESE 28 44 15 24 1018.0 1015.7 0.0
27/08:00am 10.1 3.6 6.6 79 1.7 ESE 30 39 16 21 1017.9 1015.6 0.0
27/07:30am 9.1 3.0 6.7 85 1.2 ESE 28 37 15 20 1017.6 1015.3 0.0
27/07:00am 8.2 2.5 6.5 89 0.8 ESE 26 35 14 19 1017.3 1015.0 0.0
27/06:30am 7.8 2.4 6.3 90 0.7 SE 24 35 13 19 1017.2 1014.9 0.0
27/06:00am 8.1 2.0 6.4 89 0.8 SE 28 37 15 20 1016.7 1014.5 0.0
27/05:30am 8.3 2.5 6.3 87 0.9 SE 26 39 14 21 1016.5 1014.3 0.0
27/05:00am 8.7 3.0 6.5 86 1.0 SE 26 37 14 20 1016.4 1014.1 0.0
27/04:30am 8.9 2.7 6.3 84 1.2 SE 28 46 15 25 1016.2 1013.9 0.0
27/04:24am 8.9 2.7 6.3 84 1.2 SE 28 46 15 25 1016.2 1013.9 0.0
27/04:00am 9.0 2.4 6.1 82 1.4 SE 30 43 16 23 1016.2 1013.9 0.0
27/03:48am 9.1 2.9 6.2 82 1.4 SE 28 46 15 25 1016.2 1013.9 0.0
27/03:30am 9.3 3.3 7.1 86 1.1 SE 28 41 15 22 1016.3 1014.0 0.0
27/03:00am 9.7 4.8 8.5 92 0.6 SE 24 37 13 20 1016.4 1014.1 0.0
27/02:30am 9.8 4.9 8.4 91 0.7 SE 24 33 13 18 1016.6 1014.4 0.0
27/02:00am 9.9 4.5 8.2 89 0.8 SE 26 35 14 19 1016.6 1014.4 0.0
27/01:30am 9.9 4.1 8.0 88 0.9 SE 28 37 15 20 1016.9 1014.7 0.0
27/01:00am 10.0 4.6 7.8 86 1.1 SE 26 37 14 20 1017.2 1014.9 0.0
27/12:30am 10.0 4.5 7.6 85 1.2 SE 26 35 14 19 1017.4 1015.1 0.0
27/12:00am 9.8 5.3 7.1 83 1.3 SE 20 30 11 16 1017.7 1015.4 0.0
 
Date/Time
CDT
Temp
°C
App
Temp
°C
Dew
Point
Rel
Hum
%
Delta-T
°C
Wind Press
QNH
hPa
Press
MSL
hPa
Rain
since 9 am
mm
Dir
 
Spd
km/h
Gust
km/h
Spd
kts
Gust
kts
26/11:30pm 10.0 4.8 7.1 82 1.4 SE 24 37 13 20 1017.7 1015.4 0.0
26/11:00pm 10.2 4.6 7.1 81 1.5 SSE 26 33 14 18 1017.7 1015.4 0.0
26/10:30pm 10.4 5.1 6.9 79 1.7 SSE 24 33 13 18 1017.8 1015.5 0.0
26/10:00pm 10.7 5.1 7.2 79 1.7 SSE 26 41 14 22 1017.7 1015.4 0.0
26/09:30pm 10.9 5.7 7.2 78 1.8 SSE 24 32 13 17 1017.6 1015.3 0.0
26/09:00pm 11.4 6.2 5.7 68 2.7 SSE 22 37 12 20 1017.4 1015.1 0.0
26/08:30pm 12.0 6.0 5.2 63 3.2 SSE 26 37 14 20 1017.3 1015.0 0.0
26/08:00pm 12.8 6.8 5.2 60 3.6 SSE 26 37 14 20 1016.9 1014.7 0.0
26/07:30pm 13.8 7.3 4.9 55 4.3 SSE 28 35 15 19 1016.7 1014.5 0.0
26/07:00pm 14.9 9.6 4.9 51 4.8 SSE 22 30 12 16 1016.5 1014.3 0.0
26/06:30pm 15.2 9.4 4.6 49 5.1 SSE 24 32 13 17 1016.1 1013.8 0.0
26/06:00pm 15.5 10.2 4.8 49 5.2 SE 22 37 12 20 1016.2 1013.9 0.0
26/05:30pm 16.0 11.3 5.3 49 5.2 SSE 19 28 10 15 1016.1 1013.8 0.0
26/05:00pm 15.9 11.3 5.5 50 5.1 SE 19 28 10 15 1016.4 1014.1 0.0
26/04:30pm 16.0 11.4 5.6 50 5.1 S 19 28 10 15 1016.4 1014.1 0.0
26/04:00pm 16.8 12.3 6.3 50 5.3 SSE 19 30 10 16 1016.4 1014.1 0.0
26/03:30pm 17.1 13.9 6.9 51 5.2 SSE 13 19 7 10 1016.6 1014.4 0.0
26/03:00pm 15.9 12.3 5.2 49 5.2 S 13 22 7 12 1016.8 1014.6 0.0
26/02:30pm 15.7 12.2 7.0 56 4.4 SSE 15 22 8 12 1016.8 1014.6 0.0
26/02:00pm 15.7 11.2 7.0 56 4.4 SSE 20 26 11 14 1017.1 1014.8 0.0
26/01:30pm 15.1 10.7 7.4 60 3.9 SSE 20 30 11 16 1017.1 1014.8 0.0
26/01:00pm 15.9 12.5 5.8 51 5.0 SSW 13 22 7 12 1017.3 1015.0 0.0
26/12:30pm 15.8 12.1 4.2 46 5.5 S 13 20 7 11 1017.5 1015.2 0.0
26/12:00pm 15.0 10.9 6.0 55 4.4 SE 17 30 9 16 1017.6 1015.3 0.0
26/11:30am 14.0 10.1 7.3 64 3.4 SSE 17 24 9 13 1017.8 1015.5 0.0
26/11:00am 13.9 10.5 7.7 66 3.1 SE 15 26 8 14 1017.8 1015.5 0.0
26/10:30am 13.3 9.9 9.0 75 2.2 ESE 17 24 9 13 1018.0 1015.7 0.0
26/10:00am 12.0 8.7 9.6 85 1.3 ESE 17 24 9 13 1018.0 1015.7 0.0
26/09:30am 11.3 8.4 11.1 99 0.1 ESE 17 22 9 12 1018.1 1015.8 0.0
26/09:00am 10.0 6.4 9.9 99 0.1 ESE 19 24 10 13 1018.2 1016.0 0.4
26/08:30am 9.4 4.7 9.1 98 0.2 SE 24 33 13 18 1018.3 1016.1 0.4
26/08:00am 10.7 6.7 9.1 90 0.8 ESE 20 24 11 13 1017.5 1015.2 0.0
26/07:30am 10.5 6.6 8.8 89 0.9 SE 19 26 10 14 1017.4 1015.1 0.0
26/07:00am 10.6 8.1 8.4 86 1.1 S 11 15 6 8 1017.1 1014.8 0.0
26/06:30am 10.5 8.4 8.3 86 1.1 SSE 9 15 5 8 1016.8 1014.6 0.0
26/06:00am 10.5 8.4 8.1 85 1.2 SSW 9 17 5 9 1016.6 1014.4 0.0
26/05:30am 10.5 7.1 7.7 83 1.4 SE 15 22 8 12 1016.0 1013.7 0.0
26/05:00am 10.5 7.1 7.6 82 1.4 SE 15 22 8 12 1015.9 1013.6 0.0
26/04:30am 10.5 6.4 7.7 83 1.4 SSE 19 24 10 13 1015.6 1013.3 0.0
26/04:00am 10.7 7.2 7.4 80 1.6 S 15 19 8 10 1015.7 1013.4 0.0
26/03:30am 10.7 7.3 7.8 82 1.4 S 15 22 8 12 1015.6 1013.3 0.0
26/03:00am 10.7 7.2 7.2 79 1.7 S 15 20 8 11 1015.5 1013.2 0.0
26/02:30am 10.6 7.4 6.9 78 1.8 S 13 20 7 11 1015.6 1013.3 0.0
26/02:00am 10.5 6.2 6.8 78 1.8 SSW 19 24 10 13 1015.7 1013.4 0.0
26/01:30am 10.2 6.5 6.5 78 1.8 S 15 19 8 10 1015.8 1013.5 0.0
26/01:00am 10.1 6.8 6.4 78 1.8 SSE 13 19 7 10 1016.0 1013.7 0.0

Other Formats:

Comma delimited format used in spreadsheet applications
http://www.bom.gov.au/fwo/IDS60801/IDS60801.94678.axf

JavaScript Object Notation format (JSON) in row-major order
http://www.bom.gov.au/fwo/IDS60801/IDS60801.94678.json